createdAt,value
2022-12-31T00:01:39.466Z,6.93
2022-12-31T00:04:28.015Z,6.94
2022-12-31T00:07:16.485Z,6.95
2022-12-31T00:10:05.588Z,6.97
2022-12-31T00:12:54.070Z,6.98
2022-12-31T00:15:43.076Z,7.01
2022-12-31T00:18:31.523Z,7.03
2022-12-31T00:21:20.571Z,7.07
2022-12-31T00:24:10.971Z,7.10
2022-12-31T00:26:59.495Z,7.12
2022-12-31T00:29:49.614Z,7.14
2022-12-31T00:32:38.254Z,7.13
2022-12-31T00:35:26.913Z,7.12
2022-12-31T00:38:15.488Z,7.12
2022-12-31T00:41:04.433Z,7.13
2022-12-31T00:43:52.973Z,7.14
2022-12-31T00:49:30.465Z,7.15
2022-12-31T00:52:19.252Z,7.17
2022-12-31T00:55:08.812Z,7.20
2022-12-31T00:57:57.194Z,7.21
2022-12-31T01:00:45.685Z,7.22
2022-12-31T01:03:34.221Z,7.23
2022-12-31T01:06:22.741Z,7.22
2022-12-31T01:09:12.600Z,7.22
2022-12-31T01:12:01.067Z,7.24
2022-12-31T01:14:49.582Z,7.26
2022-12-31T01:17:38.164Z,7.27
2022-12-31T01:20:26.574Z,7.27
2022-12-31T01:23:15.116Z,7.26
2022-12-31T01:26:04.534Z,7.25
2022-12-31T01:28:52.787Z,7.25
2022-12-31T01:31:41.647Z,7.24
2022-12-31T01:34:30.906Z,7.22
2022-12-31T01:37:19.335Z,7.22
2022-12-31T01:40:08.656Z,7.18
2022-12-31T01:42:57.562Z,7.14
2022-12-31T01:45:48.104Z,7.13
2022-12-31T01:48:36.704Z,7.12
2022-12-31T01:51:26.454Z,7.12
2022-12-31T01:54:18.070Z,7.11
2022-12-31T01:57:08.480Z,7.09
2022-12-31T01:59:58.517Z,7.09
2022-12-31T02:02:47.064Z,7.09
2022-12-31T02:05:38.216Z,7.11
2022-12-31T02:08:26.272Z,7.12
2022-12-31T02:11:32.512Z,7.14
2022-12-31T02:14:25.006Z,7.18
2022-12-31T02:17:20.169Z,7.20
2022-12-31T02:20:24.088Z,7.23
2022-12-31T02:23:32.744Z,7.24
2022-12-31T02:26:29.940Z,7.25
2022-12-31T02:29:27.004Z,7.24
2022-12-31T02:32:17.629Z,7.21
2022-12-31T02:35:08.835Z,7.20
2022-12-31T02:38:01.939Z,7.19
2022-12-31T02:40:50.581Z,7.16
2022-12-31T02:43:46.497Z,7.14
2022-12-31T02:46:39.946Z,7.13
2022-12-31T02:49:32.070Z,7.13
2022-12-31T02:52:25.433Z,7.13
2022-12-31T02:55:17.216Z,7.12
2022-12-31T02:58:09.902Z,7.11
2022-12-31T03:01:16.684Z,7.12
2022-12-31T03:04:20.052Z,7.11
2022-12-31T03:07:10.004Z,7.11
2022-12-31T03:09:58.757Z,7.11
2022-12-31T03:12:48.215Z,7.10
2022-12-31T03:15:38.533Z,7.10
2022-12-31T03:18:55.825Z,7.10
2022-12-31T03:22:02.668Z,7.09
2022-12-31T03:25:09.631Z,7.08
2022-12-31T03:27:58.364Z,7.07
2022-12-31T03:30:48.935Z,7.06
2022-12-31T03:33:38.849Z,7.05
2022-12-31T03:36:27.359Z,7.05
2022-12-31T03:39:15.767Z,7.04
2022-12-31T03:42:04.356Z,7.02
2022-12-31T03:44:52.985Z,7.00
2022-12-31T03:47:42.688Z,7.00
2022-12-31T03:50:31.192Z,7.01
2022-12-31T03:53:19.690Z,7.02
2022-12-31T03:56:08.414Z,7.04
2022-12-31T03:58:56.882Z,7.05
2022-12-31T04:01:45.494Z,7.03
2022-12-31T04:04:33.995Z,7.04
2022-12-31T04:07:22.696Z,7.05
2022-12-31T04:10:12.640Z,7.05
2022-12-31T04:13:03.825Z,7.04
2022-12-31T04:15:52.255Z,7.03
2022-12-31T04:18:40.709Z,7.03
2022-12-31T04:21:34.783Z,7.00
2022-12-31T04:24:23.679Z,6.96
2022-12-31T04:27:12.660Z,6.94
2022-12-31T04:30:01.039Z,6.91
2022-12-31T04:32:49.511Z,6.87
2022-12-31T04:35:38.033Z,6.86
2022-12-31T04:38:26.500Z,6.86
2022-12-31T04:41:17.885Z,6.84
2022-12-31T04:44:06.194Z,6.83
2022-12-31T04:46:54.577Z,6.83
2022-12-31T04:49:43.080Z,6.83
2022-12-31T04:52:34.635Z,6.84
2022-12-31T04:55:27.097Z,6.85
2022-12-31T04:58:15.678Z,6.85
2022-12-31T05:01:04.416Z,6.86
2022-12-31T05:03:52.858Z,6.87
2022-12-31T05:06:41.349Z,6.90
2022-12-31T05:09:30.421Z,6.91
2022-12-31T05:12:19.114Z,6.92
2022-12-31T05:15:08.751Z,6.91
2022-12-31T05:17:57.232Z,6.90
2022-12-31T05:20:45.861Z,6.87
2022-12-31T05:23:34.465Z,6.85
2022-12-31T05:26:22.986Z,6.85
2022-12-31T05:29:11.485Z,6.86
2022-12-31T05:31:59.953Z,6.87
2022-12-31T05:34:48.818Z,6.87
2022-12-31T05:37:37.370Z,6.88
2022-12-31T05:40:25.937Z,6.91
2022-12-31T05:43:14.377Z,6.92
2022-12-31T05:46:03.841Z,6.92
2022-12-31T05:48:51.931Z,6.91
2022-12-31T05:51:40.453Z,6.90
2022-12-31T05:54:28.868Z,6.91
2022-12-31T05:57:17.324Z,6.91
2022-12-31T06:00:07.399Z,6.91
2022-12-31T06:03:02.120Z,6.92
2022-12-31T06:05:50.369Z,6.92
2022-12-31T06:08:38.874Z,6.89
2022-12-31T06:11:27.443Z,6.85
2022-12-31T06:14:15.925Z,6.83
2022-12-31T06:17:04.346Z,6.80
2022-12-31T06:19:52.847Z,6.82
2022-12-31T06:22:41.385Z,6.86
2022-12-31T06:25:29.877Z,6.87
2022-12-31T06:28:20.519Z,6.86
2022-12-31T06:31:11.598Z,6.85
2022-12-31T06:34:00.127Z,6.85
2022-12-31T06:36:48.643Z,6.84
2022-12-31T06:39:37.108Z,6.85
2022-12-31T06:42:27.712Z,6.85
2022-12-31T06:45:16.283Z,6.85
2022-12-31T06:48:05.273Z,6.86
2022-12-31T06:50:53.748Z,6.87
2022-12-31T06:53:42.298Z,6.89
2022-12-31T06:56:34.703Z,6.90
2022-12-31T06:59:25.104Z,6.91
2022-12-31T07:02:22.940Z,6.93
2022-12-31T07:05:21.515Z,6.95
2022-12-31T07:08:18.959Z,6.98
2022-12-31T07:11:12.217Z,7.00
2022-12-31T07:14:03.588Z,7.01
2022-12-31T07:16:59.828Z,7.02
2022-12-31T07:19:57.278Z,7.02
2022-12-31T07:22:46.902Z,7.00
2022-12-31T07:25:36.595Z,7.00
2022-12-31T07:28:32.132Z,6.98
2022-12-31T07:31:27.602Z,6.96
2022-12-31T07:34:20.266Z,6.95
2022-12-31T07:37:13.104Z,6.96
2022-12-31T07:40:03.354Z,6.95
2022-12-31T07:43:00.756Z,6.95
2022-12-31T07:45:52.557Z,6.95
2022-12-31T07:48:41.278Z,6.97
2022-12-31T07:51:30.200Z,6.95
2022-12-31T07:54:18.659Z,6.93
2022-12-31T07:57:07.331Z,6.88
2022-12-31T08:00:01.884Z,6.85
2022-12-31T08:03:12.999Z,6.86
2022-12-31T08:06:06.953Z,6.85
2022-12-31T08:08:59.016Z,6.83
2022-12-31T08:11:49.776Z,6.84
2022-12-31T08:14:42.442Z,6.87
2022-12-31T08:17:31.192Z,6.89
2022-12-31T08:20:19.722Z,6.91
2022-12-31T08:23:21.783Z,6.91
2022-12-31T08:26:20.542Z,6.92
2022-12-31T08:29:21.783Z,6.93
2022-12-31T08:32:16.695Z,6.93
2022-12-31T08:35:10.619Z,6.93
2022-12-31T08:38:02.461Z,6.91
2022-12-31T08:40:52.854Z,6.83
2022-12-31T08:43:46.084Z,6.78
2022-12-31T08:46:38.496Z,6.75
2022-12-31T08:49:27.860Z,6.73
2022-12-31T08:52:23.887Z,6.72
2022-12-31T08:55:17.242Z,6.72
2022-12-31T08:58:12.503Z,6.72
2022-12-31T09:01:01.707Z,6.73
2022-12-31T09:03:59.703Z,6.74
2022-12-31T09:06:53.019Z,6.74
2022-12-31T09:09:49.267Z,6.75
2022-12-31T09:12:41.927Z,6.76
2022-12-31T09:15:35.984Z,6.77
2022-12-31T09:18:28.381Z,6.79
2022-12-31T09:21:21.765Z,6.80
2022-12-31T09:24:11.801Z,6.81
2022-12-31T09:27:05.941Z,6.81
2022-12-31T09:29:58.075Z,6.81
2022-12-31T09:32:56.840Z,6.82
2022-12-31T09:35:52.633Z,6.82
2022-12-31T09:38:51.863Z,6.84
2022-12-31T09:41:56.435Z,6.87
2022-12-31T09:44:58.469Z,6.90
2022-12-31T09:48:05.331Z,6.92
2022-12-31T09:51:13.943Z,6.93
2022-12-31T09:54:28.375Z,6.97
2022-12-31T09:57:30.759Z,7.01
2022-12-31T10:00:21.315Z,7.03
2022-12-31T10:03:24.919Z,7.04
2022-12-31T10:06:27.441Z,7.07
2022-12-31T10:09:21.830Z,7.08
2022-12-31T10:12:28.368Z,7.11
2022-12-31T10:15:27.030Z,7.14
2022-12-31T10:18:22.808Z,7.16
2022-12-31T10:21:21.359Z,7.21
2022-12-31T10:24:24.381Z,7.27
2022-12-31T10:27:20.709Z,7.34
2022-12-31T10:30:16.580Z,7.39
2022-12-31T10:33:08.832Z,7.44
2022-12-31T10:36:05.846Z,7.49
2022-12-31T10:39:06.211Z,7.55
2022-12-31T10:42:17.431Z,7.56
2022-12-31T10:45:33.809Z,7.57
2022-12-31T10:48:51.425Z,7.61
2022-12-31T10:51:54.010Z,7.69
2022-12-31T10:54:59.325Z,7.72
2022-12-31T10:58:03.593Z,7.74
2022-12-31T11:01:00.322Z,7.77
2022-12-31T11:04:16.120Z,7.82
2022-12-31T11:07:21.609Z,7.91
2022-12-31T11:10:20.072Z,7.95
2022-12-31T11:13:25.837Z,7.97
2022-12-31T11:16:27.561Z,7.96
2022-12-31T11:19:21.992Z,7.96
2022-12-31T11:22:19.397Z,7.95
2022-12-31T11:25:18.227Z,7.94
2022-12-31T11:28:13.929Z,7.96
2022-12-31T11:31:10.983Z,8.04
2022-12-31T11:34:14.006Z,8.20
2022-12-31T11:37:10.911Z,8.31
2022-12-31T11:40:04.998Z,8.41
2022-12-31T11:42:55.948Z,8.49
2022-12-31T11:45:51.815Z,8.59
2022-12-31T11:48:44.948Z,8.70
2022-12-31T11:51:40.689Z,8.79
2022-12-31T11:54:48.311Z,8.82
2022-12-31T11:57:37.752Z,8.82
2022-12-31T12:00:27.609Z,8.81
2022-12-31T12:03:16.120Z,8.79
2022-12-31T12:06:05.023Z,8.83
2022-12-31T12:08:53.692Z,8.89
2022-12-31T12:11:43.724Z,8.95
2022-12-31T12:14:33.096Z,9.02
2022-12-31T12:17:31.453Z,9.10
2022-12-31T12:20:21.683Z,9.28
2022-12-31T12:23:16.036Z,9.52
2022-12-31T12:26:04.706Z,9.73
2022-12-31T12:28:53.161Z,9.89
2022-12-31T12:31:41.974Z,9.97
2022-12-31T12:34:31.423Z,10.02
2022-12-31T12:37:31.811Z,10.03
2022-12-31T12:40:21.222Z,10.07
2022-12-31T12:43:21.256Z,10.15
2022-12-31T12:46:19.387Z,10.19
2022-12-31T12:49:07.899Z,10.17
2022-12-31T12:52:17.229Z,10.15
2022-12-31T12:55:10.428Z,10.10
2022-12-31T12:58:03.450Z,10.05
2022-12-31T13:00:56.322Z,9.99
2022-12-31T13:07:17.179Z,9.94
2022-12-31T13:10:15.174Z,9.93
2022-12-31T13:13:25.008Z,9.92
2022-12-31T13:16:17.216Z,9.88
2022-12-31T13:19:11.916Z,9.81
2022-12-31T13:22:05.083Z,9.78
2022-12-31T13:25:01.517Z,9.81
2022-12-31T13:27:52.052Z,9.88
2022-12-31T13:30:43.635Z,9.92
2022-12-31T13:33:35.877Z,10.01
2022-12-31T13:36:27.760Z,10.12
2022-12-31T13:39:17.676Z,10.17
2022-12-31T13:42:09.955Z,10.18
2022-12-31T13:45:02.138Z,10.23
2022-12-31T13:47:54.257Z,10.25
2022-12-31T13:50:49.594Z,10.24
2022-12-31T13:53:45.940Z,10.23
2022-12-31T13:56:37.717Z,10.24
2022-12-31T13:59:28.474Z,10.24
2022-12-31T14:02:26.965Z,10.22
2022-12-31T14:05:20.268Z,10.18
2022-12-31T14:08:10.231Z,10.15
2022-12-31T14:11:04.764Z,10.12
2022-12-31T14:14:03.263Z,10.10
2022-12-31T14:16:55.936Z,10.09
2022-12-31T14:19:51.935Z,10.08
2022-12-31T14:22:44.496Z,10.06
2022-12-31T14:25:37.242Z,10.04
2022-12-31T14:28:30.382Z,10.02
2022-12-31T14:31:25.970Z,9.98
2022-12-31T14:34:18.435Z,9.97
2022-12-31T14:37:13.296Z,10.02
2022-12-31T14:40:05.874Z,10.20
2022-12-31T14:43:03.391Z,10.31
2022-12-31T14:45:56.342Z,10.33
2022-12-31T14:48:54.156Z,10.30
2022-12-31T14:51:47.044Z,10.25
2022-12-31T14:54:37.279Z,10.18
2022-12-31T14:57:27.283Z,10.15
2022-12-31T15:00:33.513Z,10.17
2022-12-31T15:03:26.971Z,10.20
2022-12-31T15:06:29.470Z,10.19
2022-12-31T15:09:28.977Z,10.15
2022-12-31T15:12:33.429Z,10.12
2022-12-31T15:15:35.557Z,10.07
2022-12-31T15:18:31.939Z,10.00
2022-12-31T15:21:40.474Z,9.91
2022-12-31T15:24:30.314Z,9.79
2022-12-31T15:27:29.152Z,9.67
2022-12-31T15:30:42.491Z,9.58
2022-12-31T15:33:33.155Z,9.48
2022-12-31T15:36:21.941Z,9.39
2022-12-31T15:39:25.461Z,9.34
2022-12-31T15:42:40.027Z,9.32
2022-12-31T15:45:33.483Z,9.29
2022-12-31T15:48:24.408Z,9.26
2022-12-31T15:51:16.781Z,9.24
2022-12-31T15:54:05.302Z,9.20
2022-12-31T15:56:54.154Z,9.17
2022-12-31T15:59:44.232Z,9.13
2022-12-31T16:02:32.826Z,9.11
2022-12-31T16:05:22.672Z,9.08
2022-12-31T16:08:17.088Z,9.05
2022-12-31T16:11:06.154Z,9.04
2022-12-31T16:13:55.497Z,9.03
2022-12-31T16:16:51.430Z,9.03
2022-12-31T16:19:43.052Z,9.00
2022-12-31T16:22:36.468Z,8.96
2022-12-31T16:25:32.062Z,8.93
2022-12-31T16:28:23.132Z,8.89
2022-12-31T16:31:16.242Z,8.85
2022-12-31T16:34:06.709Z,8.80
2022-12-31T16:36:55.787Z,8.76
2022-12-31T16:40:06.716Z,8.73
2022-12-31T16:42:55.051Z,8.72
2022-12-31T16:45:43.861Z,8.71
2022-12-31T16:48:33.814Z,8.69
2022-12-31T16:51:24.215Z,8.66
2022-12-31T16:54:18.932Z,8.66
2022-12-31T16:57:10.340Z,8.66
2022-12-31T17:00:01.209Z,8.64
2022-12-31T17:03:00.035Z,8.64
2022-12-31T17:05:56.485Z,8.64
2022-12-31T17:08:47.892Z,8.61
2022-12-31T17:11:38.744Z,8.57
2022-12-31T17:14:28.058Z,8.55
2022-12-31T17:17:20.487Z,8.53
2022-12-31T17:20:19.775Z,8.49
2022-12-31T17:23:08.844Z,8.45
2022-12-31T17:26:03.394Z,8.42
2022-12-31T17:28:53.438Z,8.37
2022-12-31T17:31:57.261Z,8.32
2022-12-31T17:34:48.630Z,8.29
2022-12-31T17:37:37.088Z,8.26
2022-12-31T17:40:50.961Z,8.24
2022-12-31T17:43:40.770Z,8.22
2022-12-31T17:46:40.280Z,8.21
2022-12-31T17:49:30.023Z,8.18
2022-12-31T17:52:18.326Z,8.13
2022-12-31T17:55:07.071Z,8.06
2022-12-31T17:57:56.690Z,8.02
2022-12-31T18:00:44.781Z,7.98
2022-12-31T18:03:33.160Z,7.89
2022-12-31T18:06:21.645Z,7.80
2022-12-31T18:09:11.924Z,7.75
2022-12-31T18:12:02.034Z,7.71
2022-12-31T18:14:51.573Z,7.71
2022-12-31T18:17:40.366Z,7.73
2022-12-31T18:20:29.242Z,7.74
2022-12-31T18:23:18.930Z,7.74
2022-12-31T18:26:09.769Z,7.75
2022-12-31T18:28:58.762Z,7.75
2022-12-31T18:31:48.796Z,7.75
2022-12-31T18:34:36.831Z,7.75
2022-12-31T18:37:28.191Z,7.75
2022-12-31T18:40:16.431Z,7.74
2022-12-31T18:43:05.422Z,7.75
2022-12-31T18:45:53.738Z,7.77
2022-12-31T18:48:42.566Z,7.80
2022-12-31T18:51:32.456Z,7.82
2022-12-31T18:54:21.261Z,7.83
2022-12-31T18:57:10.655Z,7.82
2022-12-31T18:59:59.272Z,7.81
2022-12-31T19:02:47.886Z,7.81
2022-12-31T19:05:37.296Z,7.81
2022-12-31T19:08:25.993Z,7.82
2022-12-31T19:11:15.025Z,7.85
2022-12-31T19:14:03.618Z,7.85
2022-12-31T19:16:53.600Z,7.85
2022-12-31T19:19:41.728Z,7.84
2022-12-31T19:22:30.155Z,7.86
2022-12-31T19:25:19.898Z,7.87
2022-12-31T19:28:14.740Z,7.86
2022-12-31T19:31:03.148Z,7.83
2022-12-31T19:33:51.702Z,7.82
2022-12-31T19:36:44.228Z,7.84
2022-12-31T19:39:32.762Z,7.86
2022-12-31T19:42:21.289Z,7.89
2022-12-31T19:45:12.802Z,7.91
2022-12-31T19:48:00.945Z,7.90
2022-12-31T19:50:50.255Z,7.88
2022-12-31T19:53:39.116Z,7.84
2022-12-31T19:56:27.487Z,7.84
2022-12-31T19:59:18.276Z,7.84
2022-12-31T20:02:06.976Z,7.86
2022-12-31T20:04:55.624Z,7.88
2022-12-31T20:07:44.048Z,7.90
2022-12-31T20:10:32.483Z,7.92
2022-12-31T20:13:21.033Z,7.92
2022-12-31T20:16:10.325Z,7.91
2022-12-31T20:18:58.375Z,7.90
2022-12-31T20:21:46.863Z,7.88
2022-12-31T20:24:35.319Z,7.87
2022-12-31T20:27:23.769Z,7.87
2022-12-31T20:30:12.496Z,7.84
2022-12-31T20:33:00.950Z,7.79
2022-12-31T20:35:49.668Z,7.74
2022-12-31T20:38:38.168Z,7.71
2022-12-31T20:41:26.761Z,7.70
2022-12-31T20:44:15.251Z,7.69
2022-12-31T20:47:03.699Z,7.68
2022-12-31T20:50:12.211Z,7.66
2022-12-31T20:53:01.423Z,7.64
2022-12-31T20:55:50.039Z,7.59
2022-12-31T20:58:40.561Z,7.53
2022-12-31T21:01:41.758Z,7.49
2022-12-31T21:04:40.340Z,7.43
2022-12-31T21:07:29.768Z,7.40
2022-12-31T21:10:18.031Z,7.37
2022-12-31T21:13:06.561Z,7.36
2022-12-31T21:15:55.131Z,7.35
2022-12-31T21:18:43.453Z,7.35
2022-12-31T21:21:36.761Z,7.33
2022-12-31T21:24:25.827Z,7.30
2022-12-31T21:27:19.328Z,7.29
2022-12-31T21:30:18.797Z,7.26
2022-12-31T21:33:07.876Z,7.23
2022-12-31T21:36:01.127Z,7.23
2022-12-31T21:38:53.048Z,7.19
2022-12-31T21:41:53.675Z,7.16
2022-12-31T21:44:42.630Z,7.13
2022-12-31T21:47:49.603Z,7.08
2022-12-31T21:50:39.056Z,7.04
2022-12-31T21:53:34.189Z,7.00
2022-12-31T21:56:25.237Z,6.96
2022-12-31T21:59:31.971Z,6.92
2022-12-31T22:02:38.710Z,6.88
2022-12-31T22:05:27.259Z,6.86
2022-12-31T22:08:15.749Z,6.86
2022-12-31T22:11:04.313Z,6.89
2022-12-31T22:13:53.365Z,6.89
2022-12-31T22:16:41.870Z,6.90
2022-12-31T22:19:30.528Z,6.90
2022-12-31T22:22:19.198Z,6.89
2022-12-31T22:25:08.442Z,6.89
2022-12-31T22:28:36.156Z,6.91
2022-12-31T22:31:05.991Z,6.93
2022-12-31T22:33:54.563Z,6.95
2022-12-31T22:36:42.967Z,6.95
2022-12-31T22:39:43.548Z,6.95
2022-12-31T22:42:32.912Z,6.95
2022-12-31T22:45:21.536Z,6.92
2022-12-31T22:48:10.076Z,6.89
2022-12-31T22:50:58.753Z,6.88
2022-12-31T22:53:47.165Z,6.88
2022-12-31T22:56:35.667Z,6.88
2022-12-31T22:59:24.186Z,6.88
2022-12-31T23:02:12.732Z,6.90
2022-12-31T23:05:15.166Z,6.93
2022-12-31T23:08:11.848Z,6.97
2022-12-31T23:11:09.043Z,7.01
2022-12-31T23:14:15.898Z,7.06
2022-12-31T23:17:30.230Z,7.10
2022-12-31T23:20:40.579Z,7.11
2022-12-31T23:23:29.132Z,7.10
2022-12-31T23:26:17.548Z,7.08
2022-12-31T23:29:05.875Z,7.06
2022-12-31T23:31:54.416Z,7.04
2022-12-31T23:34:43.358Z,7.03
2022-12-31T23:37:32.753Z,7.01
2022-12-31T23:40:22.056Z,7.00
2022-12-31T23:43:18.301Z,6.98
2022-12-31T23:46:07.021Z,6.96
2022-12-31T23:48:55.666Z,6.94
2022-12-31T23:51:44.827Z,6.93
2022-12-31T23:54:34.478Z,6.90
2022-12-31T23:57:22.959Z,6.88
